Time;durP1;ratioP1;P1;durP2;ratioP2;P2;SDS_P1;SDS_P2;PMS_P1;PMS_P2;Temp;Humidity;BMP_temperature;BMP_pressure;BME280_temperature;BME280_humidity;BME280_pressure;Samples;Min_cycle;Max_cycle;Signal;HPM_P1;HPM_P2
2022/10/20 00:00:32;;;;;;;29.18;17.98;;;;;;;6.67;100.00;100052.95;4261322;82;21640;-83
2022/10/20 00:06:35;;;;;;;26.93;17.25;;;;;;;6.63;100.00;100058.00;4267599;82;21097;-84
2022/10/20 00:12:37;;;;;;;32.42;19.07;;;;;;;6.61;100.00;100062.99;4259488;82;21086;-85
2022/10/20 00:18:39;;;;;;;27.37;15.30;;;;;;;6.60;100.00;100065.45;4294997;83;21955;-84
2022/10/20 00:24:41;;;;;;;32.55;20.32;;;;;;;6.65;100.00;100062.02;4257653;82;20963;-84
2022/10/20 00:30:43;;;;;;;25.90;15.30;;;;;;;6.60;100.00;100065.45;4270832;82;21486;-84
2022/10/20 00:36:44;;;;;;;32.35;18.27;;;;;;;6.45;100.00;100065.97;4262335;82;20971;-84
2022/10/20 00:42:47;;;;;;;33.20;18.57;;;;;;;6.24;100.00;100067.98;4254827;82;21074;-84
2022/10/20 00:48:53;;;;;;;32.42;17.52;;;;;;;6.06;100.00;100056.08;4266145;82;20986;-84
2022/10/20 00:54:55;;;;;;;28.27;17.33;;;;;;;5.93;100.00;100059.73;4246962;82;21675;-84
2022/10/20 01:00:58;;;;;;;27.32;17.87;;;;;;;5.88;100.00;100053.90;4265860;82;21154;-83
2022/10/20 01:07:01;;;;;;;35.38;19.77;;;;;;;5.72;100.00;100054.63;4259321;82;21035;-83
2022/10/20 01:13:17;;;;;;;28.87;15.85;;;;;;;5.60;100.00;100056.63;4269847;82;21034;-84
2022/10/20 01:20:07;;;;;;;31.17;17.95;;;;;;;5.52;100.00;100057.39;4277241;82;21038;-84
2022/10/20 01:26:35;;;;;;;29.87;17.48;;;;;;;5.25;100.00;100054.09;4259985;82;21037;-84
2022/10/20 01:33:08;;;;;;;24.40;14.80;;;;;;;5.04;100.00;100049.00;4264306;82;21035;-84
2022/10/20 01:39:30;;;;;;;22.73;14.73;;;;;;;4.97;100.00;100054.88;4255747;82;21006;-83
2022/10/20 01:45:36;;;;;;;33.63;17.23;;;;;;;4.88;100.00;100061.37;4261456;82;21048;-85
2022/10/20 01:51:37;;;;;;;29.12;16.87;;;;;;;4.77;100.00;100068.44;4260599;82;21016;-83
2022/10/20 01:58:03;;;;;;;22.73;14.85;;;;;;;4.61;100.00;100058.27;4279477;82;21091;-83
2022/10/20 02:04:07;;;;;;;21.70;12.83;;;;;;;4.40;100.00;100060.68;4276533;82;21034;-83
2022/10/20 02:10:22;;;;;;;23.32;15.38;;;;;;;4.40;100.00;100057.97;4274525;82;21002;-83
2022/10/20 02:16:34;;;;;;;24.25;14.40;;;;;;;4.27;100.00;100060.20;4278564;82;21002;-83
2022/10/20 02:22:38;;;;;;;28.60;15.68;;;;;;;4.12;100.00;100056.48;4279108;82;20994;-83
2022/10/20 02:28:44;;;;;;;25.72;14.50;;;;;;;4.01;100.00;100061.89;4277354;82;21052;-86
2022/10/20 02:34:46;;;;;;;29.27;15.83;;;;;;;3.85;100.00;100063.36;4275771;82;20990;-83
2022/10/20 02:40:48;;;;;;;34.78;17.62;;;;;;;3.76;100.00;100069.80;4277986;82;21064;-84
2022/10/20 02:46:49;;;;;;;32.08;16.52;;;;;;;3.77;100.00;100069.50;4272697;82;20999;-84
2022/10/20 02:52:51;;;;;;;28.85;15.88;;;;;;;3.64;100.00;100067.61;4276347;82;20998;-83
2022/10/20 02:58:52;;;;;;;27.48;15.13;;;;;;;3.61;100.00;100066.86;4276001;82;21043;-83
2022/10/20 03:04:54;;;;;;;35.63;15.98;;;;;;;3.93;100.00;100074.80;4283359;80;21002;-83
2022/10/20 03:10:55;;;;;;;48.05;17.25;;;;;;;4.08;100.00;100070.95;4281228;82;21017;-84
2022/10/20 03:16:56;;;;;;;33.33;16.82;;;;;;;3.91;100.00;100087.87;4279313;82;21065;-84
2022/10/20 03:22:58;;;;;;;28.17;15.45;;;;;;;3.70;100.00;100085.34;4258927;80;24460;-83
2022/10/20 03:28:59;;;;;;;29.37;15.55;;;;;;;3.72;100.00;100087.75;4258507;82;21864;-84
2022/10/20 03:35:00;;;;;;;24.40;14.53;;;;;;;3.81;100.00;100099.45;4268614;82;21653;-82
2022/10/20 03:41:02;;;;;;;26.93;15.78;;;;;;;3.71;100.00;100101.83;4203860;82;20979;-83
2022/10/20 03:47:05;;;;;;;31.07;15.63;;;;;;;3.63;100.00;100109.34;4227631;82;22069;-83
2022/10/20 03:53:07;;;;;;;28.70;15.80;;;;;;;3.63;100.00;100108.52;4248912;81;21992;-83
2022/10/20 03:59:10;;;;;;;33.85;15.98;;;;;;;3.47;100.00;100118.86;4267606;82;21091;-83
2022/10/20 04:05:18;;;;;;;49.50;15.72;;;;;;;3.31;100.00;100112.13;4253920;81;21027;-82
2022/10/20 04:11:19;;;;;;;45.12;16.87;;;;;;;3.10;100.00;100119.05;4256643;81;21061;-83
2022/10/20 04:17:21;;;;;;;43.68;16.02;;;;;;;2.90;100.00;100118.84;4262693;81;21047;-83
2022/10/20 04:23:22;;;;;;;48.73;15.60;;;;;;;2.73;100.00;100117.80;4251267;81;21022;-83
2022/10/20 04:29:24;;;;;;;27.07;15.83;;;;;;;2.59;100.00;100114.25;4262842;82;20979;-83
2022/10/20 04:35:25;;;;;;;19.57;13.85;;;;;;;2.54;100.00;100114.32;4159118;83;21018;-83
2022/10/20 04:41:27;;;;;;;21.17;12.82;;;;;;;2.51;100.00;100112.21;4116660;84;21008;-82
2022/10/20 04:47:32;;;;;;;18.95;12.15;;;;;;;2.68;100.00;100115.17;4119645;84;21071;-83
2022/10/20 04:53:34;;;;;;;26.17;13.50;;;;;;;2.62;100.00;100116.36;4266586;81;21083;-82
2022/10/20 04:59:36;;;;;;;29.85;13.05;;;;;;;2.66;100.00;100111.98;4239423;82;21067;-82
2022/10/20 05:05:37;;;;;;;34.23;13.55;;;;;;;2.44;100.00;100105.86;4238960;82;21603;-83
2022/10/20 05:11:39;;;;;;;37.30;16.65;;;;;;;2.30;100.00;100111.72;4247812;82;21562;-83
2022/10/20 05:17:40;;;;;;;56.85;17.07;;;;;;;2.17;100.00;100115.72;4245991;82;21090;-82
2022/10/20 05:23:42;;;;;;;54.83;17.98;;;;;;;2.03;100.00;100118.36;4242396;82;21922;-82
2022/10/20 05:29:44;;;;;;;30.90;15.28;;;;;;;1.97;100.00;100123.58;4236445;82;21026;-82
2022/10/20 05:35:45;;;;;;;27.30;14.80;;;;;;;1.90;100.00;100128.52;4245003;82;21535;-82
2022/10/20 05:41:46;;;;;;;25.05;14.85;;;;;;;1.85;100.00;100133.20;4235860;82;21038;-82
2022/10/20 05:47:49;;;;;;;20.50;13.40;;;;;;;1.94;100.00;100135.50;4250212;82;21599;-82
2022/10/20 05:53:53;;;;;;;21.20;13.53;;;;;;;2.18;100.00;100137.04;4241353;82;21030;-83
2022/10/20 05:59:54;;;;;;;19.82;13.15;;;;;;;2.43;100.00;100146.12;4255939;82;21066;-82
2022/10/20 06:05:58;;;;;;;28.57;16.25;;;;;;;2.45;100.00;100153.39;4254450;82;21098;-81
2022/10/20 06:11:59;;;;;;;37.38;20.55;;;;;;;2.60;100.00;100156.42;4259038;82;21110;-82
2022/10/20 06:18:01;;;;;;;41.13;22.30;;;;;;;2.82;100.00;100161.44;4258922;82;21030;-82
2022/10/20 06:24:04;;;;;;;38.83;20.45;;;;;;;3.00;100.00;100168.72;4268186;81;20959;-82
2022/10/20 06:30:07;;;;;;;30.35;17.37;;;;;;;3.11;100.00;100175.56;4259493;82;20994;-82
2022/10/20 06:36:09;;;;;;;28.35;16.55;;;;;;;3.22;100.00;100169.41;4258932;82;21015;-83
2022/10/20 06:42:10;;;;;;;29.52;17.37;;;;;;;3.31;100.00;100167.61;4265874;82;21114;-83
2022/10/20 06:48:14;;;;;;;27.70;15.50;;;;;;;3.49;100.00;100169.45;4257216;81;21038;-84
2022/10/20 06:54:15;;;;;;;24.10;14.50;;;;;;;3.62;100.00;100170.56;4258297;81;21026;-83
2022/10/20 07:00:17;;;;;;;26.20;14.30;;;;;;;3.81;100.00;100171.23;4255696;81;20982;-83
2022/10/20 07:06:22;;;;;;;24.67;14.03;;;;;;;3.99;100.00;100160.30;4253017;81;21995;-83
2022/10/20 07:12:23;;;;;;;22.98;14.95;;;;;;;4.35;100.00;100171.16;4233433;81;21606;-82
2022/10/20 07:18:28;;;;;;;24.50;14.58;;;;;;;4.71;100.00;100165.94;4258741;81;21473;-84
2022/10/20 07:24:29;;;;;;;26.33;15.58;;;;;;;5.35;100.00;100157.00;4263157;81;21062;-85
2022/10/20 07:30:39;;;;;;;23.45;16.62;;;;;;;5.79;100.00;100154.95;4259769;81;21562;-84
2022/10/20 07:36:43;;;;;;;22.58;13.90;;;;;;;6.32;100.00;100151.49;4264302;81;21022;-83
2022/10/20 07:42:44;;;;;;;29.18;14.65;;;;;;;7.01;100.00;100145.44;4228192;81;21002;-84
2022/10/20 07:48:46;;;;;;;28.65;15.85;;;;;;;7.32;100.00;100143.83;4260035;81;21061;-84
2022/10/20 07:54:47;;;;;;;41.85;17.15;;;;;;;7.56;100.00;100144.06;4258395;81;21949;-83
2022/10/20 08:00:49;;;;;;;26.80;15.70;;;;;;;8.12;100.00;100138.70;4265874;81;21062;-84
2022/10/20 08:06:50;;;;;;;21.62;14.23;;;;;;;8.52;100.00;100137.94;4258530;81;21067;-84
2022/10/20 08:12:51;;;;;;;11.10;6.30;;;;;;;8.99;100.00;100134.41;4256970;81;21543;-84
2022/10/20 08:18:53;;;;;;;11.53;5.75;;;;;;;9.65;100.00;100134.50;4161670;83;21428;-85
2022/10/20 08:31:59;;;;;;;7.28;4.17;;;;;;;10.78;99.10;100140.96;4142725;83;21038;-86
2022/10/20 08:38:03;;;;;;;5.33;3.58;;;;;;;11.51;96.88;100150.94;4164203;83;21658;-86
2022/10/20 08:44:06;;;;;;;9.45;3.50;;;;;;;12.12;96.60;100140.33;4166946;83;21077;-87
2022/10/20 08:50:16;;;;;;;9.28;3.22;;;;;;;12.48;94.68;100131.13;4123429;84;21082;-85
2022/10/20 08:56:26;;;;;;;6.50;3.12;;;;;;;12.85;93.10;100134.26;4065556;85;21524;-86
2022/10/20 09:02:33;;;;;;;5.42;3.40;;;;;;;13.31;92.17;100140.06;4138085;84;21090;-86
2022/10/20 09:08:38;;;;;;;4.65;2.98;;;;;;;13.92;91.79;100144.08;4135020;84;21043;-86
2022/10/20 09:14:44;;;;;;;6.08;2.90;;;;;;;13.92;89.87;100132.47;4074393;85;21485;-86
2022/10/20 09:21:07;;;;;;;5.40;3.37;;;;;;;14.35;88.98;100127.04;4128899;84;21660;-86
2022/10/20 09:27:44;;;;;;;3.33;2.08;;;;;;;14.82;87.65;100114.86;4122999;84;21150;-86
2022/10/20 09:40:47;;;;;;;2.75;1.60;;;;;;;15.27;84.91;100115.13;4154151;85;20149;-88
2022/10/20 09:46:53;;;;;;;3.27;1.17;;;;;;;15.39;83.91;100113.53;4134129;84;21986;-87
2022/10/20 09:53:30;;;;;;;3.77;1.17;;;;;;;15.25;80.30;100104.48;4173277;83;21039;-86
2022/10/20 09:59:37;;;;;;;2.40;1.02;;;;;;;15.37;80.45;100101.47;4088018;85;21686;-86
2022/10/20 10:05:42;;;;;;;2.92;1.20;;;;;;;15.59;79.35;100094.99;4100090;85;21684;-86
2022/10/20 10:11:43;;;;;;;1.55;0.90;;;;;;;15.14;72.92;100090.39;4142522;83;21060;-86
2022/10/20 10:17:45;;;;;;;1.87;1.07;;;;;;;15.63;73.60;100083.38;4122192;83;21088;-86
2022/10/20 10:23:55;;;;;;;4.15;1.52;;;;;;;15.87;71.36;100086.70;4141767;84;21659;-87
2022/10/20 10:30:33;;;;;;;4.80;1.57;;;;;;;15.55;71.43;100093.38;4070632;85;21096;-87
2022/10/20 10:36:36;;;;;;;2.20;1.55;;;;;;;15.69;70.24;100087.37;4155668;83;21032;-86
2022/10/20 10:43:14;;;;;;;2.70;1.70;;;;;;;15.35;70.55;100079.55;4133549;83;21072;-85
2022/10/20 10:50:02;;;;;;;2.40;1.32;;;;;;;14.81;69.22;100076.64;4163763;84;21024;-85
2022/10/20 10:56:48;;;;;;;5.78;2.00;;;;;;;14.76;68.94;100072.27;4122143;83;21991;-85
2022/10/20 11:03:27;;;;;;;3.12;1.70;;;;;;;14.80;69.42;100057.16;4124263;84;20999;-85
2022/10/20 11:10:01;;;;;;;3.12;1.40;;;;;;;14.74;67.88;100053.92;4116703;84;21075;-85
2022/10/20 11:16:49;;;;;;;1.72;1.12;;;;;;;14.67;67.74;100051.10;4176830;83;21091;-86
2022/10/20 11:23:15;;;;;;;3.17;1.22;;;;;;;14.27;67.21;100046.08;4155344;83;21035;-85
2022/10/20 11:29:30;;;;;;;2.58;1.15;;;;;;;13.87;66.17;100038.42;4134488;84;21010;-85
2022/10/20 11:35:57;;;;;;;1.57;1.20;;;;;;;13.61;64.62;100026.83;4127471;84;21362;-85
2022/10/20 11:42:21;;;;;;;2.52;1.20;;;;;;;13.38;65.67;100017.02;4121079;84;21054;-84
2022/10/20 11:48:41;;;;;;;1.87;1.00;;;;;;;13.05;65.44;100005.86;4123533;84;21039;-85
2022/10/20 11:55:09;;;;;;;2.70;1.25;;;;;;;12.84;65.21;99995.28;4152612;85;21075;-85
2022/10/20 12:01:26;;;;;;;2.70;1.30;;;;;;;12.73;65.44;99991.55;4199364;83;21011;-84
2022/10/20 12:07:34;;;;;;;;;;;;;;;12.54;64.43;99984.11;4123117;83;200998;-85
2022/10/20 12:14:11;;;;;;;;;;;;;;;12.37;64.60;99980.45;4230131;82;20115;-84
2022/10/20 12:20:26;;;;;;;1.15;0.60;;;;;;;12.26;63.75;99965.72;4159990;83;20110;-85
2022/10/20 12:26:35;;;;;;;3.77;0.90;;;;;;;12.16;64.05;99964.16;4269928;82;20994;-84
2022/10/20 12:32:51;;;;;;;6.33;1.00;;;;;;;12.06;63.87;99960.59;4139929;84;21028;-84
2022/10/20 12:39:14;;;;;;;2.33;0.90;;;;;;;11.91;63.61;99956.80;4255368;82;20987;-85
2022/10/20 12:45:30;;;;;;;1.67;0.93;;;;;;;11.76;63.44;99947.25;4248673;81;21357;-85
2022/10/20 12:51:54;;;;;;;5.28;1.07;;;;;;;11.69;63.10;99938.86;4235019;82;21036;-85
2022/10/20 12:58:21;;;;;;;4.12;0.80;;;;;;;11.55;62.85;99937.95;4234225;82;21024;-84
2022/10/20 13:05:01;;;;;;;1.65;1.02;;;;;;;11.41;62.85;99929.98;4275531;82;21008;-83
2022/10/20 13:11:39;;;;;;;1.50;0.90;;;;;;;11.38;63.05;99931.50;4255718;82;21000;-84
2022/10/20 13:17:59;;;;;;;;;;;;;;;11.42;62.87;99922.77;4313975;82;21098;-84
2022/10/20 13:24:13;;;;;;;2.37;1.20;;;;;;;11.35;63.11;99921.25;4232526;82;20178;-84
2022/10/20 13:30:21;;;;;;;2.30;1.20;;;;;;;11.34;62.79;99925.13;4252004;82;21011;-84
2022/10/20 13:36:45;;;;;;;2.42;1.00;;;;;;;11.37;63.57;99919.52;4284417;83;20992;-84
2022/10/20 13:43:19;;;;;;;2.20;1.22;;;;;;;11.31;63.58;99915.48;4108485;85;22077;-84
2022/10/20 13:49:44;;;;;;;2.77;1.32;;;;;;;11.19;63.40;99902.67;4271807;82;21427;-83
2022/10/20 13:56:00;;;;;;;2.75;1.50;;;;;;;11.05;63.83;99903.15;4275237;82;21074;-84
2022/10/20 14:02:19;;;;;;;3.50;1.60;;;;;;;11.05;64.11;99900.97;4266448;82;20992;-84
2022/10/20 14:08:21;;;;;;;6.33;2.30;;;;;;;11.07;64.38;99898.69;4260457;82;21016;-83
2022/10/20 14:14:25;;;;;;;9.50;2.37;;;;;;;11.01;64.55;99891.30;4255662;82;21076;-85
2022/10/20 14:20:28;;;;;;;6.55;1.52;;;;;;;11.00;64.35;99899.30;4281407;82;21352;-84
2022/10/20 14:26:31;;;;;;;2.98;1.40;;;;;;;10.91;64.25;99894.59;4262691;82;21410;-84
2022/10/20 14:32:39;;;;;;;3.35;1.70;;;;;;;10.75;64.69;99886.95;4272934;82;20994;-83
2022/10/20 14:38:46;;;;;;;3.50;1.40;;;;;;;10.64;64.77;99877.69;4266621;81;21029;-83
2022/10/20 14:44:49;;;;;;;4.20;1.55;;;;;;;10.54;65.02;99875.47;4264122;82;21104;-83
2022/10/20 14:50:53;;;;;;;2.60;1.30;;;;;;;10.49;65.34;99876.32;4171882;84;20997;-83
2022/10/20 14:57:18;;;;;;;3.12;1.60;;;;;;;10.37;65.23;99874.45;4165760;83;21064;-84
2022/10/20 15:03:19;;;;;;;4.35;1.67;;;;;;;10.22;65.45;99873.88;4199060;83;21013;-83
2022/10/20 15:09:29;;;;;;;3.30;1.72;;;;;;;10.10;65.55;99864.94;4249653;82;21002;-84
2022/10/20 15:15:38;;;;;;;4.05;1.55;;;;;;;9.94;65.91;99867.61;4209930;83;21065;-83
2022/10/20 15:21:39;;;;;;;7.33;2.62;;;;;;;9.78;66.25;99852.29;4217026;82;21015;-84
2022/10/20 15:27:40;;;;;;;3.02;1.77;;;;;;;9.64;66.48;99844.50;4214595;83;21063;-84
2022/10/20 15:33:42;;;;;;;6.60;2.22;;;;;;;9.48;66.71;99834.08;4219215;83;21044;-83
2022/10/20 15:39:43;;;;;;;4.95;1.60;;;;;;;9.33;67.00;99837.55;4245640;82;21044;-84
2022/10/20 15:45:52;;;;;;;4.67;2.47;;;;;;;9.15;67.28;99832.13;4218799;81;20981;-83
2022/10/20 15:51:53;;;;;;;5.62;2.22;;;;;;;8.95;67.82;99828.42;4215555;83;21821;-83
2022/10/20 15:57:55;;;;;;;6.97;2.72;;;;;;;8.79;68.02;99832.17;4202510;82;21030;-83
2022/10/20 16:04:00;;;;;;;12.65;4.05;;;;;;;8.59;68.30;99824.91;4152508;84;21101;-83
2022/10/20 16:10:00;;;;;;;5.42;3.05;;;;;;;8.42;68.63;99821.05;4172629;83;21046;-83
2022/10/20 16:16:01;;;;;;;11.20;3.20;;;;;;;8.23;68.96;99827.63;4250815;82;21063;-83
2022/10/20 16:22:03;;;;;;;7.50;3.90;;;;;;;8.09;69.26;99824.39;4260264;82;21066;-85
2022/10/20 16:28:05;;;;;;;7.55;4.33;;;;;;;7.93;69.66;99836.52;4264867;82;21057;-82
2022/10/20 16:34:06;;;;;;;7.60;4.03;;;;;;;7.80;70.01;99839.77;4226304;82;21461;-82
2022/10/20 16:40:09;;;;;;;7.95;4.78;;;;;;;7.68;70.58;99843.02;4227809;82;21016;-82
2022/10/20 16:46:12;;;;;;;8.20;4.17;;;;;;;7.52;70.73;99846.93;4224717;82;21476;-83
2022/10/20 16:52:13;;;;;;;20.57;9.48;;;;;;;7.36;71.63;99843.22;4103965;82;10000046;-83
2022/10/20 16:58:14;;;;;;;28.67;10.68;;;;;;;7.13;71.81;99841.96;4225329;82;21943;-83
2022/10/20 17:04:16;;;;;;;17.85;7.42;;;;;;;7.02;72.43;99841.31;4186756;84;21064;-82
2022/10/20 17:10:19;;;;;;;12.68;6.58;;;;;;;6.92;72.67;99841.13;4231895;82;20985;-82
2022/10/20 17:16:25;;;;;;;11.25;6.15;;;;;;;6.78;72.95;99844.66;4241243;82;20990;-83
2022/10/20 17:22:26;;;;;;;12.57;7.10;;;;;;;6.66;73.37;99849.22;4242408;82;21549;-83
2022/10/20 17:28:30;;;;;;;11.05;6.50;;;;;;;6.49;73.83;99845.22;4247051;82;20998;-83
2022/10/20 17:34:35;;;;;;;16.35;8.58;;;;;;;6.26;74.26;99840.63;4216820;83;20989;-82
2022/10/20 17:40:37;;;;;;;24.92;14.05;;;;;;;6.12;74.90;99844.89;4214590;83;21043;-82
2022/10/20 17:46:38;;;;;;;49.50;18.20;;;;;;;5.93;75.03;99837.70;4333177;81;21348;-82
2022/10/20 17:52:40;;;;;;;53.75;19.70;;;;;;;5.71;75.18;99837.06;4184410;80;9999664;-83
2022/10/20 17:58:46;;;;;;;53.68;21.30;;;;;;;5.53;75.68;99832.21;4316783;81;21104;-82
2022/10/20 18:04:50;;;;;;;44.63;18.20;;;;;;;5.42;76.14;99826.09;4239698;81;21948;-83
2022/10/20 18:10:52;;;;;;;30.25;13.83;;;;;;;5.37;76.59;99823.53;4253379;81;21028;-82
2022/10/20 18:16:53;;;;;;;28.10;13.15;;;;;;;5.43;78.15;99831.75;4244471;81;21869;-82
2022/10/20 18:22:54;;;;;;;31.12;13.45;;;;;;;5.40;78.12;99832.39;4237040;82;21878;-82
2022/10/20 18:28:58;;;;;;;30.40;15.68;;;;;;;5.29;77.62;99830.56;4178010;84;21958;-83
2022/10/20 18:35:01;;;;;;;27.27;14.50;;;;;;;5.26;78.18;99824.97;4188560;82;21866;-83
2022/10/20 18:41:05;;;;;;;22.37;12.78;;;;;;;5.24;78.37;99821.77;4248850;82;20980;-84
2022/10/20 18:47:06;;;;;;;29.60;15.55;;;;;;;5.11;78.44;99818.64;4240020;82;20976;-82
2022/10/20 18:53:08;;;;;;;28.75;16.07;;;;;;;5.00;78.81;99820.88;4129901;82;10000164;-82
2022/10/20 18:59:15;;;;;;;30.90;15.70;;;;;;;4.95;79.12;99814.25;4243861;82;21012;-82
2022/10/20 19:05:16;;;;;;;29.70;16.02;;;;;;;4.81;79.00;99809.52;4255011;82;20994;-82
2022/10/20 19:11:18;;;;;;;37.38;17.25;;;;;;;4.70;79.17;99808.23;4258401;82;21004;-82
2022/10/20 19:17:20;;;;;;;26.30;13.80;;;;;;;4.60;79.87;99807.97;4257250;82;21523;-82
2022/10/20 19:23:22;;;;;;;26.97;15.38;;;;;;;4.59;80.19;99810.45;4254947;82;21921;-83
2022/10/20 19:29:23;;;;;;;23.18;13.22;;;;;;;4.49;80.15;99803.98;4247987;82;22063;-82
2022/10/20 19:35:25;;;;;;;24.10;13.35;;;;;;;4.31;80.80;99805.03;4258770;81;20987;-82
2022/10/20 19:41:26;;;;;;;22.05;13.68;;;;;;;4.24;81.24;99806.61;4242885;82;21960;-82
2022/10/20 19:47:28;;;;;;;30.32;17.25;;;;;;;4.20;82.04;99810.48;4244871;81;21944;-82
2022/10/20 19:53:30;;;;;;;28.85;15.63;;;;;;;4.09;81.70;99802.94;4152380;84;21110;-82
2022/10/20 19:59:31;;;;;;;32.75;16.65;;;;;;;3.98;82.39;99810.55;4263041;81;21415;-82
2022/10/20 20:05:33;;;;;;;28.30;17.25;;;;;;;3.85;81.88;99801.17;4275076;81;21466;-83
2022/10/20 20:11:36;;;;;;;29.93;17.27;;;;;;;3.71;82.32;99804.52;4271123;82;21857;-83
2022/10/20 20:17:38;;;;;;;36.13;19.00;;;;;;;3.71;83.00;99801.81;4271872;82;21043;-83
2022/10/20 20:23:39;;;;;;;33.25;17.42;;;;;;;3.63;82.83;99791.73;4241779;82;20964;-83
2022/10/20 20:29:40;;;;;;;31.80;17.90;;;;;;;3.51;83.16;99788.80;4158436;84;21023;-81
2022/10/20 20:35:42;;;;;;;33.90;17.65;;;;;;;3.46;83.57;99785.64;4115512;85;20971;-82
2022/10/20 20:41:43;;;;;;;32.10;17.73;;;;;;;3.44;83.83;99774.34;4287871;82;21969;-81
2022/10/20 20:47:46;;;;;;;33.28;16.87;;;;;;;3.40;83.88;99780.69;4284330;82;21432;-82
2022/10/20 20:53:48;;;;;;;33.70;17.70;;;;;;;3.45;84.50;99771.06;4252857;82;21070;-81
2022/10/20 20:59:49;;;;;;;37.98;20.40;;;;;;;3.37;84.32;99761.79;4250877;82;21031;-82
2022/10/20 21:05:51;;;;;;;36.25;20.90;;;;;;;3.30;84.49;99775.52;4189724;84;21039;-82
2022/10/20 21:11:52;;;;;;;37.95;19.45;;;;;;;3.31;85.24;99770.34;4181168;84;21052;-81
2022/10/20 21:17:54;;;;;;;45.48;24.30;;;;;;;3.26;84.83;99763.15;4180643;83;21028;-82
2022/10/20 21:23:56;;;;;;;48.35;23.77;;;;;;;2.99;84.56;99748.41;4327615;81;21007;-82
2022/10/20 21:29:58;;;;;;;44.33;24.85;;;;;;;2.81;84.96;99735.30;4325802;81;21084;-83
2022/10/20 21:36:12;;;;;;;47.05;24.77;;;;;;;2.70;85.78;99733.13;4324352;81;21565;-82
2022/10/20 21:42:14;;;;;;;49.38;25.50;;;;;;;2.64;85.99;99727.05;4326808;81;21042;-83
2022/10/20 21:48:15;;;;;;;53.85;25.97;;;;;;;2.58;86.20;99722.88;4330537;81;21066;-82
2022/10/20 21:54:21;;;;;;;48.87;24.12;;;;;;;2.54;86.58;99718.36;4328094;81;21111;-82
2022/10/20 22:00:22;;;;;;;53.78;25.85;;;;;;;2.54;86.99;99711.05;4301628;81;21024;-82
2022/10/20 22:06:26;;;;;;;46.95;25.95;;;;;;;2.55;87.21;99702.41;4239871;81;21028;-81
2022/10/20 22:12:28;;;;;;;43.40;24.43;;;;;;;2.49;87.28;99703.63;4252165;81;21106;-82
2022/10/20 22:18:29;;;;;;;45.92;24.77;;;;;;;2.52;88.30;99701.09;4254889;81;21432;-82
2022/10/20 22:24:34;;;;;;;45.60;24.85;;;;;;;2.65;88.60;99705.66;4253287;81;21024;-82
2022/10/20 22:30:34;;;;;;;43.95;24.23;;;;;;;2.59;87.55;99697.43;4258123;82;20978;-82
2022/10/20 22:36:36;;;;;;;40.75;22.45;;;;;;;2.44;87.07;99672.12;4265271;82;21032;-82
2022/10/20 22:42:38;;;;;;;42.13;22.60;;;;;;;2.36;88.12;99689.05;4222635;82;21060;-81
2022/10/20 22:48:39;;;;;;;42.50;22.98;;;;;;;2.50;89.05;99680.89;4264226;81;21008;-82
2022/10/20 22:54:41;;;;;;;44.33;22.50;;;;;;;2.53;88.26;99674.88;4231935;82;21001;-82
2022/10/20 23:00:42;;;;;;;43.08;22.95;;;;;;;2.29;88.04;99671.09;4266851;81;21480;-82
2022/10/20 23:06:44;;;;;;;39.23;21.48;;;;;;;2.18;88.07;99678.36;4312840;81;22043;-81
2022/10/20 23:12:45;;;;;;;43.50;22.27;;;;;;;2.16;88.50;99679.23;4308737;81;21024;-82
2022/10/20 23:18:47;;;;;;;42.80;21.15;;;;;;;2.26;89.65;99682.51;4294430;81;21034;-82
2022/10/20 23:24:48;;;;;;;37.13;20.75;;;;;;;2.41;89.67;99687.56;4312938;81;22045;-81
2022/10/20 23:30:50;;;;;;;41.15;21.90;;;;;;;2.40;89.35;99695.97;4227167;83;21104;-81
2022/10/20 23:36:51;;;;;;;39.10;22.05;;;;;;;2.34;88.92;99681.79;4188032;82;20991;-81
2022/10/20 23:42:53;;;;;;;45.98;20.95;;;;;;;2.36;89.44;99678.24;4221947;83;20987;-81
2022/10/20 23:48:54;;;;;;;38.53;20.70;;;;;;;2.37;89.72;99672.27;4191558;83;20983;-82
2022/10/20 23:54:55;;;;;;;40.90;23.38;;;;;;;2.10;88.36;99666.95;4245933;82;21811;-81
